Time;durP1;ratioP1;P1;durP2;ratioP2;P2;SDS_P1;SDS_P2;PMS_P1;PMS_P2;Temp;Humidity;BMP_temperature;BMP_pressure;BME280_temperature;BME280_humidity;BME280_pressure;Samples;Min_cycle;Max_cycle;Signal;HPM_P1;HPM_P2
2021/07/09 00:04:45;;;;;;;0.90;0.90;;;19.60;51.80;;;;;;10446203;28;20597;-74
2021/07/09 00:09:50;;;;;;;1.43;1.17;;;19.50;52.10;;;;;;10447923;28;20232;-74
2021/07/09 00:14:53;;;;;;;1.57;1.00;;;19.50;51.90;;;;;;10454617;28;20224;-74
2021/07/09 00:19:58;;;;;;;0.90;0.90;;;19.50;52.10;;;;;;10450348;28;20766;-74
2021/07/09 00:25:01;;;;;;;1.07;0.87;;;19.40;52.40;;;;;;10446566;28;20600;-74
2021/07/09 00:30:05;;;;;;;1.43;1.10;;;19.40;51.90;;;;;;10448325;28;20220;-73
2021/07/09 00:35:11;;;;;;;1.83;1.30;;;19.40;52.00;;;;;;10448075;28;20229;-74
2021/07/09 00:40:16;;;;;;;1.20;1.10;;;19.30;52.40;;;;;;10449345;28;20236;-74
2021/07/09 00:45:19;;;;;;;2.50;1.20;;;19.30;52.20;;;;;;10445906;28;20236;-74
2021/07/09 00:50:24;;;;;;;1.30;1.20;;;19.30;52.30;;;;;;10443886;28;20233;-74
2021/07/09 00:55:27;;;;;;;1.40;1.23;;;19.30;52.90;;;;;;10452834;28;20233;-74
2021/07/09 01:00:31;;;;;;;1.40;1.30;;;19.30;52.80;;;;;;10448581;28;20224;-74
2021/07/09 01:05:36;;;;;;;2.57;1.60;;;19.30;53.00;;;;;;10449631;28;20226;-74
2021/07/09 01:10:42;;;;;;;1.70;1.60;;;19.30;53.30;;;;;;10443936;28;20229;-74
2021/07/09 01:15:45;;;;;;;1.80;1.70;;;19.30;53.30;;;;;;10449673;28;20233;-74
2021/07/09 01:20:49;;;;;;;1.90;1.80;;;19.30;53.10;;;;;;10457164;28;20279;-74
2021/07/09 01:25:54;;;;;;;1.90;1.80;;;19.20;53.60;;;;;;10454823;28;20233;-74
2021/07/09 01:30:57;;;;;;;2.03;1.87;;;19.20;53.80;;;;;;10452919;28;20225;-74
2021/07/09 01:36:01;;;;;;;2.37;2.00;;;19.20;53.40;;;;;;10442634;28;20328;-74
2021/07/09 01:41:05;;;;;;;6.20;2.20;;;19.20;53.50;;;;;;10450473;28;20315;-74
2021/07/09 01:46:08;;;;;;;2.00;1.90;;;19.20;53.90;;;;;;10451316;28;20636;-74
2021/07/09 01:51:12;;;;;;;1.90;1.80;;;19.20;53.40;;;;;;10446653;28;20255;-74
2021/07/09 01:56:16;;;;;;;3.83;1.90;;;19.20;53.40;;;;;;10441535;28;20601;-74
2021/07/09 02:01:19;;;;;;;1.90;1.80;;;19.20;53.80;;;;;;10445999;28;20601;-74
2021/07/09 02:06:22;;;;;;;2.20;1.90;;;19.10;53.40;;;;;;10448952;28;20229;-74
2021/07/09 02:11:27;;;;;;;1.93;1.77;;;19.10;53.50;;;;;;10451437;28;20239;-74
2021/07/09 02:16:30;;;;;;;2.10;1.90;;;19.10;53.90;;;;;;10444536;28;20233;-74
2021/07/09 02:21:34;;;;;;;3.80;2.03;;;19.10;53.80;;;;;;10446229;28;20236;-74
2021/07/09 02:26:38;;;;;;;2.00;1.90;;;19.00;53.80;;;;;;10453107;28;20236;-74
2021/07/09 02:31:41;;;;;;;1.93;1.83;;;19.00;54.40;;;;;;10448877;28;20229;-74
2021/07/09 02:36:44;;;;;;;1.73;1.63;;;18.90;54.10;;;;;;10448119;28;20316;-74
2021/07/09 02:41:49;;;;;;;1.40;1.30;;;18.90;54.20;;;;;;10448131;28;20233;-74
2021/07/09 02:46:53;;;;;;;1.30;1.30;;;19.00;54.80;;;;;;10453110;28;20964;-74
2021/07/09 02:51:56;;;;;;;1.27;1.20;;;19.00;54.60;;;;;;10456623;28;20225;-74
2021/07/09 02:57:01;;;;;;;1.00;1.00;;;18.90;54.40;;;;;;10453695;28;20240;-74
2021/07/09 03:02:04;;;;;;;1.03;0.93;;;18.90;54.80;;;;;;10444918;28;20236;-73
2021/07/09 03:07:08;;;;;;;0.70;0.70;;;18.90;54.60;;;;;;10451671;28;20220;-74
2021/07/09 03:12:12;;;;;;;0.80;0.80;;;18.90;54.40;;;;;;10458953;28;20225;-74
2021/07/09 03:17:15;;;;;;;0.50;0.50;;;18.90;54.80;;;;;;10448110;28;20229;-74
2021/07/09 03:22:18;;;;;;;0.60;0.60;;;18.80;54.30;;;;;;10449744;28;20228;-73
2021/07/09 03:27:23;;;;;;;1.03;0.50;;;18.80;54.80;;;;;;10448331;28;20234;-74
2021/07/09 03:32:26;;;;;;;2.23;0.60;;;18.70;54.50;;;;;;10445335;28;20235;-74
2021/07/09 03:37:29;;;;;;;2.00;0.70;;;18.60;54.00;;;;;;10451262;28;20228;-74
2021/07/09 03:42:34;;;;;;;0.50;0.43;;;18.50;54.00;;;;;;10445086;28;20228;-74
2021/07/09 03:47:37;;;;;;;0.80;0.50;;;18.50;54.20;;;;;;10449952;28;20228;-73
2021/07/09 03:52:40;;;;;;;1.47;0.60;;;18.50;54.00;;;;;;10450486;28;20232;-74
2021/07/09 03:57:45;;;;;;;0.67;0.50;;;18.40;53.90;;;;;;10445016;28;20228;-74
2021/07/09 04:02:48;;;;;;;0.60;0.40;;;18.40;54.30;;;;;;10453979;28;20227;-74
2021/07/09 04:07:51;;;;;;;0.50;0.50;;;18.30;54.30;;;;;;10446640;28;20312;-74
2021/07/09 04:12:56;;;;;;;0.40;0.40;;;18.30;54.10;;;;;;10443375;28;20225;-74
2021/07/09 04:17:59;;;;;;;0.40;0.40;;;18.30;54.50;;;;;;10449164;28;20224;-74
2021/07/09 04:23:02;;;;;;;0.73;0.40;;;18.30;54.50;;;;;;10450638;28;20242;-73
2021/07/09 04:28:07;;;;;;;0.80;0.60;;;18.30;54.40;;;;;;10448016;28;20240;-73
2021/07/09 04:33:10;;;;;;;1.97;0.67;;;18.30;55.00;;;;;;10444187;28;20303;-74
2021/07/09 04:38:13;;;;;;;0.50;0.50;;;18.30;54.80;;;;;;10446803;28;20233;-74
2021/07/09 04:43:18;;;;;;;0.47;0.47;;;18.30;54.80;;;;;;10451919;28;20245;-74
2021/07/09 04:48:21;;;;;;;0.50;0.50;;;18.30;55.20;;;;;;10451743;28;20228;-74
2021/07/09 04:53:24;;;;;;;0.50;0.50;;;18.40;55.00;;;;;;10455681;28;20224;-74
2021/07/09 04:58:29;;;;;;;0.40;0.40;;;18.40;54.80;;;;;;10460148;28;20229;-74
2021/07/09 05:03:32;;;;;;;0.40;0.40;;;18.40;55.00;;;;;;10451949;28;20232;-74
2021/07/09 05:08:35;;;;;;;0.50;0.50;;;18.40;54.90;;;;;;10454162;28;20251;-75
2021/07/09 05:13:40;;;;;;;0.60;0.60;;;18.40;54.80;;;;;;10457684;28;20220;-75
2021/07/09 05:18:43;;;;;;;1.50;0.60;;;18.40;55.10;;;;;;10454189;28;20320;-74
2021/07/09 05:23:46;;;;;;;0.50;0.50;;;18.40;54.70;;;;;;10450050;28;20225;-74
2021/07/09 05:28:51;;;;;;;0.90;0.90;;;18.30;54.80;;;;;;10449729;28;20247;-75
2021/07/09 05:33:54;;;;;;;0.60;0.60;;;18.20;55.20;;;;;;10446391;28;20719;-74
2021/07/09 05:38:57;;;;;;;2.03;0.60;;;18.20;55.10;;;;;;10458236;28;20729;-75
2021/07/09 05:44:01;;;;;;;0.77;0.70;;;18.20;55.10;;;;;;10451847;28;20217;-75
2021/07/09 05:49:05;;;;;;;1.17;0.70;;;18.20;55.30;;;;;;10456939;28;20232;-74
2021/07/09 05:54:08;;;;;;;1.17;0.73;;;18.20;55.20;;;;;;10451785;28;20648;-75
2021/07/09 05:59:13;;;;;;;0.90;0.90;;;18.10;55.30;;;;;;10443191;28;20232;-69
2021/07/09 06:04:17;;;;;;;0.73;0.73;;;18.10;56.00;;;;;;10461019;28;20224;-69
2021/07/09 06:09:21;;;;;;;0.87;0.87;;;18.10;55.70;;;;;;10451533;28;20233;-69
2021/07/09 06:14:26;;;;;;;1.33;0.70;;;18.10;55.50;;;;;;10454313;28;20256;-69
2021/07/09 06:19:29;;;;;;;0.60;0.60;;;18.20;55.90;;;;;;10454091;28;20229;-69
2021/07/09 06:24:34;;;;;;;2.27;0.90;;;18.20;55.30;;;;;;10457584;28;20782;-69
2021/07/09 06:29:38;;;;;;;1.00;1.00;;;18.20;55.20;;;;;;10452361;28;20942;-69
2021/07/09 06:34:41;;;;;;;0.90;0.90;;;18.20;55.60;;;;;;10451005;28;20700;-69
2021/07/09 06:39:44;;;;;;;1.37;1.10;;;18.20;55.20;;;;;;10450810;28;20228;-69
2021/07/09 06:44:49;;;;;;;1.03;0.97;;;18.20;55.60;;;;;;10451443;28;20237;-69
2021/07/09 06:49:52;;;;;;;1.13;1.13;;;18.20;56.10;;;;;;10450779;28;20906;-69
2021/07/09 06:54:56;;;;;;;1.10;1.10;;;18.20;55.90;;;;;;10451074;28;20601;-69
2021/07/09 07:00:00;;;;;;;5.57;2.00;;;18.20;55.90;;;;;;10452832;28;20227;-69
2021/07/09 07:05:04;;;;;;;1.00;0.90;;;18.20;56.50;;;;;;10454543;28;20240;-71
2021/07/09 07:10:09;;;;;;;1.07;1.07;;;18.20;56.20;;;;;;10445339;28;20237;-72
2021/07/09 07:15:15;;;;;;;1.10;1.03;;;18.30;56.40;;;;;;10453605;28;20235;-72
2021/07/09 07:20:18;;;;;;;0.87;0.87;;;18.30;56.70;;;;;;10451936;28;20225;-71
2021/07/09 07:25:21;;;;;;;1.50;1.40;;;18.40;56.50;;;;;;10452079;28;20221;-71
2021/07/09 07:30:26;;;;;;;1.27;1.17;;;18.40;56.60;;;;;;10454688;28;20236;-72
2021/07/09 07:35:30;;;;;;;1.20;1.20;;;18.50;56.90;;;;;;10442104;28;20235;-72
2021/07/09 07:40:34;;;;;;;1.07;1.00;;;18.50;56.40;;;;;;10453521;28;20227;-71
2021/07/09 07:45:39;;;;;;;1.20;1.20;;;18.60;56.30;;;;;;10451374;28;20244;-72
2021/07/09 07:50:44;;;;;;;1.07;1.07;;;18.60;56.60;;;;;;10453131;28;20234;-71
2021/07/09 07:55:47;;;;;;;1.40;1.30;;;18.60;56.20;;;;;;10452920;28;20233;-72
2021/07/09 08:00:51;;;;;;;1.87;1.60;;;18.50;56.20;;;;;;10447428;28;20252;-71
2021/07/09 08:05:54;;;;;;;1.43;1.33;;;18.60;56.60;;;;;;10454221;28;20228;-71
2021/07/09 08:10:57;;;;;;;1.57;1.47;;;18.60;56.60;;;;;;10450949;28;20228;-72
2021/07/09 08:16:02;;;;;;;1.73;1.63;;;18.60;56.70;;;;;;10452977;28;20241;-71
2021/07/09 08:21:06;;;;;;;1.87;1.77;;;18.60;57.20;;;;;;10456148;28;20263;-71
2021/07/09 08:26:09;;;;;;;1.60;1.50;;;18.60;57.40;;;;;;10459591;28;20236;-71
2021/07/09 08:31:13;;;;;;;1.60;1.50;;;18.70;57.80;;;;;;10457186;28;20589;-71
2021/07/09 08:36:17;;;;;;;2.00;1.80;;;18.80;57.80;;;;;;10454530;28;20231;-71
2021/07/09 08:41:20;;;;;;;2.60;1.67;;;18.90;57.40;;;;;;10462328;28;20243;-71
2021/07/09 08:46:28;;;;;;;1.53;1.43;;;19.00;58.10;;;;;;10450694;28;20239;-70
2021/07/09 08:51:35;;;;;;;1.37;1.27;;;19.10;58.10;;;;;;10449140;28;20334;-71
2021/07/09 08:56:38;;;;;;;1.50;1.40;;;19.30;59.10;;;;;;10448042;28;20905;-71
2021/07/09 09:01:50;;;;;;;1.30;1.30;;;19.50;57.90;;;;;;10452221;28;20233;-68
2021/07/09 09:07:02;;;;;;;1.50;1.40;;;19.60;57.20;;;;;;10456071;28;20317;-68
2021/07/09 09:12:08;;;;;;;1.10;1.10;;;19.70;57.30;;;;;;10447306;28;20799;-74
2021/07/09 09:17:28;;;;;;;1.50;1.40;;;19.70;56.90;;;;;;10438336;28;20232;-74
2021/07/09 09:22:32;;;;;;;1.40;1.23;;;19.70;56.70;;;;;;10442840;28;20224;-68
2021/07/09 09:27:35;;;;;;;1.13;1.13;;;19.70;56.80;;;;;;10446763;28;20274;-74
2021/07/09 09:32:47;;;;;;;2.27;1.70;;;19.80;56.80;;;;;;10443135;28;20229;-74
2021/07/09 09:37:54;;;;;;;1.50;1.40;;;19.80;57.50;;;;;;10448908;28;20229;-73
2021/07/09 09:42:57;;;;;;;2.63;1.30;;;19.90;56.80;;;;;;10441995;28;20226;-74
2021/07/09 09:48:08;;;;;;;1.40;1.40;;;20.00;56.40;;;;;;10451662;28;20225;-74
2021/07/09 09:53:12;;;;;;;1.20;1.20;;;20.10;56.50;;;;;;10451577;28;20231;-74
2021/07/09 09:58:18;;;;;;;2.07;1.60;;;20.20;56.70;;;;;;10442853;28;20697;-74
2021/07/09 10:03:23;;;;;;;1.80;1.70;;;20.30;56.50;;;;;;10447546;28;21201;-74
2021/07/09 10:08:26;;;;;;;1.20;1.20;;;20.40;55.70;;;;;;10453554;28;20228;-74
2021/07/09 10:13:30;;;;;;;1.20;1.10;;;20.50;56.20;;;;;;10452440;28;20305;-73
2021/07/09 10:18:35;;;;;;;1.23;1.13;;;20.60;56.10;;;;;;10451219;28;20712;-74
2021/07/09 10:23:39;;;;;;;1.13;1.13;;;20.70;56.20;;;;;;10444134;28;20248;-74
2021/07/09 10:28:42;;;;;;;1.33;1.23;;;20.80;56.10;;;;;;10452729;28;20232;-74
2021/07/09 10:33:46;;;;;;;1.00;1.00;;;20.90;54.70;;;;;;10449274;28;20224;-73
2021/07/09 10:38:56;;;;;;;1.00;1.00;;;20.80;53.60;;;;;;10451939;28;21183;-73
2021/07/09 10:44:14;;;;;;;2.70;1.30;;;20.70;53.70;;;;;;10448819;28;20708;-73
2021/07/09 10:49:48;;;;;;;1.00;1.00;;;20.60;54.30;;;;;;10447476;28;20217;-73
2021/07/09 10:54:52;;;;;;;1.07;1.07;;;20.50;54.20;;;;;;10437251;28;20225;-73
2021/07/09 11:00:23;;;;;;;1.13;1.03;;;20.50;54.80;;;;;;10455122;28;20389;-74
2021/07/09 11:05:54;;;;;;;1.20;1.20;;;20.50;53.70;;;;;;10446113;28;20689;-74
2021/07/09 11:11:06;;;;;;;1.00;1.00;;;20.50;53.90;;;;;;10447807;28;20225;-73
2021/07/09 11:16:26;;;;;;;1.10;1.10;;;20.40;54.90;;;;;;10452990;28;20238;-74
2021/07/09 11:22:07;;;;;;;1.00;1.00;;;20.40;54.50;;;;;;10450042;28;20252;-74
2021/07/09 11:27:16;;;;;;;1.30;1.30;;;20.30;54.50;;;;;;10450812;28;20309;-74
2021/07/09 11:32:25;;;;;;;1.03;1.03;;;20.40;54.50;;;;;;10450524;28;20224;-74
2021/07/09 11:37:29;;;;;;;1.70;1.60;;;20.30;54.90;;;;;;10449982;28;20236;-74
2021/07/09 11:42:35;;;;;;;1.60;1.50;;;20.40;55.40;;;;;;10449646;28;20224;-74
2021/07/09 11:47:40;;;;;;;2.53;2.30;;;20.40;55.60;;;;;;10447443;28;20232;-74
2021/07/09 11:52:46;;;;;;;1.60;1.50;;;20.50;55.90;;;;;;10444774;28;20233;-68
2021/07/09 11:57:51;;;;;;;1.53;1.53;;;20.60;55.60;;;;;;10453481;28;20223;-68
2021/07/09 12:02:54;;;;;;;2.10;2.00;;;20.80;55.40;;;;;;10448728;28;20224;-68
2021/07/09 12:07:58;;;;;;;2.57;2.37;;;20.80;54.40;;;;;;10452194;28;20225;-69
2021/07/09 12:13:04;;;;;;;2.83;2.63;;;20.80;54.70;;;;;;10448172;28;20216;-69
2021/07/09 12:18:08;;;;;;;2.93;2.83;;;20.80;53.80;;;;;;10448859;28;20304;-68
2021/07/09 12:23:13;;;;;;;2.83;2.73;;;20.70;53.50;;;;;;10444454;28;20224;-69
2021/07/09 12:28:23;;;;;;;3.13;2.93;;;20.70;53.90;;;;;;10449392;28;20778;-69
2021/07/09 12:33:33;;;;;;;3.27;3.07;;;20.70;54.10;;;;;;10447361;28;20232;-68
2021/07/09 12:38:38;;;;;;;3.30;3.10;;;20.80;53.90;;;;;;10451467;28;20620;-68
2021/07/09 12:43:46;;;;;;;3.80;3.50;;;20.90;54.50;;;;;;10450903;28;20236;-68
2021/07/09 12:48:56;;;;;;;3.40;3.20;;;21.00;53.60;;;;;;10444835;28;20231;-68
2021/07/09 12:54:03;;;;;;;3.10;2.90;;;21.10;52.70;;;;;;10447009;28;20267;-68
2021/07/09 12:59:09;;;;;;;3.43;3.23;;;21.20;53.00;;;;;;10451062;28;20599;-69
2021/07/09 13:04:21;;;;;;;3.57;3.27;;;21.20;53.60;;;;;;10452522;28;20709;-69
2021/07/09 13:09:24;;;;;;;3.77;3.57;;;21.20;52.30;;;;;;10453226;28;20225;-69
2021/07/09 13:14:29;;;;;;;4.20;3.90;;;21.30;53.40;;;;;;10454753;28;20229;-68
2021/07/09 13:19:35;;;;;;;4.13;3.93;;;21.30;53.10;;;;;;10451357;28;20224;-69
2021/07/09 13:24:39;;;;;;;3.80;3.57;;;21.40;54.00;;;;;;10452146;28;20248;-68
2021/07/09 13:29:44;;;;;;;3.40;3.10;;;21.60;54.40;;;;;;10455286;28;20229;-68
2021/07/09 13:34:47;;;;;;;3.87;3.57;;;21.80;53.70;;;;;;10450193;28;20825;-68
2021/07/09 13:39:50;;;;;;;3.17;3.03;;;22.00;52.90;;;;;;10452434;28;20724;-68
2021/07/09 13:44:55;;;;;;;3.30;3.10;;;22.10;51.50;;;;;;10456627;28;20581;-68
2021/07/09 13:49:58;;;;;;;3.37;3.07;;;22.20;49.50;;;;;;10450911;28;20233;-68
2021/07/09 13:55:02;;;;;;;3.50;3.30;;;22.10;49.10;;;;;;10445246;28;20236;-68
2021/07/09 14:00:09;;;;;;;3.80;3.50;;;22.10;49.50;;;;;;10453865;28;20256;-68
2021/07/09 14:05:13;;;;;;;3.77;3.57;;;22.10;48.80;;;;;;10450902;28;20886;-68
2021/07/09 14:10:16;;;;;;;3.93;3.73;;;22.10;49.20;;;;;;10455962;28;20690;-68
2021/07/09 14:15:21;;;;;;;3.80;3.60;;;22.20;50.10;;;;;;10447839;28;20220;-68
2021/07/09 14:20:24;;;;;;;4.23;3.63;;;22.30;48.60;;;;;;10449015;28;20229;-68
2021/07/09 14:25:28;;;;;;;3.70;3.50;;;22.40;50.30;;;;;;10448782;28;20235;-68
2021/07/09 14:30:33;;;;;;;4.10;3.70;;;22.60;49.70;;;;;;10454664;28;20294;-68
2021/07/09 14:35:50;;;;;;;3.80;3.60;;;22.80;48.20;;;;;;10449751;28;20311;-68
2021/07/09 14:40:53;;;;;;;3.70;3.40;;;22.90;48.90;;;;;;10449009;28;20228;-68
2021/07/09 14:45:58;;;;;;;3.50;3.30;;;23.10;48.80;;;;;;10452846;28;20235;-68
2021/07/09 14:51:01;;;;;;;4.60;3.33;;;23.20;47.00;;;;;;10454169;28;20231;-68
2021/07/09 14:56:05;;;;;;;4.10;3.90;;;23.40;48.20;;;;;;10452549;28;20697;-68
2021/07/09 15:01:09;;;;;;;3.80;3.60;;;23.50;47.00;;;;;;10448499;28;20642;-68
2021/07/09 15:06:12;;;;;;;3.80;3.60;;;23.60;46.10;;;;;;10452436;28;20225;-68
2021/07/09 15:11:16;;;;;;;4.57;4.17;;;23.60;46.80;;;;;;10449243;28;20229;-68
2021/07/09 15:16:28;;;;;;;3.83;3.57;;;23.70;46.90;;;;;;10447398;28;20224;-68
2021/07/09 15:21:31;;;;;;;3.37;3.13;;;23.80;45.90;;;;;;10446347;28;20229;-68
2021/07/09 15:26:35;;;;;;;3.40;3.10;;;23.80;46.30;;;;;;10454010;28;20642;-68
2021/07/09 15:31:39;;;;;;;3.20;2.90;;;23.90;46.00;;;;;;10451466;28;20233;-68
2021/07/09 15:36:43;;;;;;;2.90;2.80;;;23.80;44.40;;;;;;10449938;28;20233;-68
2021/07/09 15:41:47;;;;;;;2.90;2.80;;;23.90;45.10;;;;;;10450980;28;20236;-68
2021/07/09 15:46:52;;;;;;;2.63;2.50;;;23.90;44.60;;;;;;10452643;28;20225;-68
2021/07/09 15:51:55;;;;;;;3.40;3.20;;;23.90;44.30;;;;;;10449588;28;20224;-68
2021/07/09 15:56:59;;;;;;;3.33;3.10;;;24.00;44.90;;;;;;10451939;28;20220;-68
2021/07/09 16:02:04;;;;;;;3.00;2.80;;;24.10;44.70;;;;;;10447650;28;20599;-69
2021/07/09 16:07:07;;;;;;;3.50;3.30;;;24.20;43.50;;;;;;10451097;28;20705;-68
2021/07/09 16:12:10;;;;;;;3.40;3.20;;;24.20;44.70;;;;;;10443833;28;20239;-68
2021/07/09 16:17:15;;;;;;;3.97;3.37;;;24.20;44.80;;;;;;10454775;28;20231;-68
2021/07/09 16:22:18;;;;;;;3.70;3.40;;;24.10;43.70;;;;;;10443759;28;20231;-68
2021/07/09 16:27:21;;;;;;;3.37;3.17;;;24.10;44.40;;;;;;10453274;28;20212;-68
2021/07/09 16:32:26;;;;;;;3.50;3.30;;;24.10;44.20;;;;;;10446849;28;20224;-68
2021/07/09 16:37:29;;;;;;;3.70;3.40;;;24.00;43.70;;;;;;10453042;28;20232;-68
2021/07/09 16:42:34;;;;;;;3.50;3.30;;;23.80;43.90;;;;;;10449834;28;20225;-68
2021/07/09 16:47:41;;;;;;;5.00;4.50;;;23.70;44.30;;;;;;10463494;28;20232;-69
2021/07/09 16:52:44;;;;;;;4.30;3.57;;;23.70;44.20;;;;;;10457617;28;20224;-70
2021/07/09 16:57:47;;;;;;;4.13;3.77;;;23.60;44.00;;;;;;10454297;28;20230;-69
2021/07/09 17:02:51;;;;;;;3.73;3.43;;;23.50;43.90;;;;;;10461728;28;20224;-69
2021/07/09 17:07:55;;;;;;;5.57;3.83;;;23.30;44.20;;;;;;10457473;28;20248;-69
2021/07/09 17:12:58;;;;;;;4.20;3.90;;;23.20;44.90;;;;;;10455228;28;20225;-69
2021/07/09 17:18:03;;;;;;;4.43;4.13;;;23.10;45.20;;;;;;10459942;28;20221;-68
2021/07/09 17:23:07;;;;;;;4.17;3.87;;;23.00;45.80;;;;;;10449802;28;20227;-69
2021/07/09 17:28:10;;;;;;;4.73;4.27;;;23.00;45.60;;;;;;10458850;28;20223;-69
2021/07/09 17:33:14;;;;;;;4.73;4.33;;;22.90;45.90;;;;;;10454677;28;20220;-68
2021/07/09 17:38:17;;;;;;;4.97;4.53;;;22.90;45.50;;;;;;10459641;28;20232;-69
2021/07/09 17:43:20;;;;;;;4.20;3.90;;;22.90;45.20;;;;;;10451794;28;20247;-68
2021/07/09 17:48:25;;;;;;;4.80;4.50;;;22.90;45.30;;;;;;10452976;28;20231;-69
2021/07/09 17:53:28;;;;;;;4.33;4.03;;;22.80;45.40;;;;;;10452963;28;20232;-68
2021/07/09 17:58:31;;;;;;;4.30;4.00;;;22.80;45.80;;;;;;10449322;28;20613;-68
2021/07/09 18:03:36;;;;;;;4.43;4.17;;;22.80;46.20;;;;;;10446701;28;20221;-68
2021/07/09 18:08:39;;;;;;;4.47;4.10;;;22.80;46.10;;;;;;10451553;28;20244;-68
2021/07/09 18:13:42;;;;;;;4.93;4.50;;;22.90;46.10;;;;;;10449716;28;20262;-68
2021/07/09 18:18:47;;;;;;;4.47;4.17;;;22.80;46.00;;;;;;10450706;28;20240;-68
2021/07/09 18:23:50;;;;;;;4.80;4.50;;;22.80;46.20;;;;;;10448088;28;20232;-68
2021/07/09 18:28:53;;;;;;;4.73;4.37;;;22.70;46.00;;;;;;10442113;28;21023;-68
2021/07/09 18:33:57;;;;;;;4.53;4.13;;;22.70;45.60;;;;;;10439848;28;20727;-68
2021/07/09 18:39:01;;;;;;;5.30;4.80;;;22.70;45.60;;;;;;10448860;28;20229;-68
2021/07/09 18:44:05;;;;;;;4.60;4.20;;;22.60;45.80;;;;;;10449786;28;20646;-68
2021/07/09 18:49:10;;;;;;;4.63;4.33;;;22.50;46.00;;;;;;10447856;28;20240;-68
2021/07/09 18:54:30;;;;;;;4.83;4.47;;;22.50;46.60;;;;;;10456755;28;20234;-68
2021/07/09 18:59:33;;;;;;;6.80;5.23;;;22.50;46.60;;;;;;10450051;28;20235;-68
2021/07/09 19:04:38;;;;;;;5.40;4.90;;;22.50;46.50;;;;;;10454712;28;20236;-68
2021/07/09 19:09:54;;;;;;;4.80;4.40;;;22.40;46.20;;;;;;10446323;28;20319;-68
2021/07/09 19:14:57;;;;;;;4.40;4.00;;;22.30;46.00;;;;;;10449700;28;20566;-68
2021/07/09 19:20:01;;;;;;;4.83;4.53;;;22.20;46.20;;;;;;10450130;28;20232;-68
2021/07/09 19:25:06;;;;;;;4.93;4.53;;;22.10;46.40;;;;;;10449708;28;20209;-68
2021/07/09 19:30:12;;;;;;;4.90;4.50;;;22.00;46.50;;;;;;10453803;28;20229;-68
2021/07/09 19:35:17;;;;;;;5.23;4.73;;;22.00;46.90;;;;;;10445819;28;20224;-68
2021/07/09 19:40:21;;;;;;;5.00;4.70;;;22.10;47.00;;;;;;10444885;28;20237;-68
2021/07/09 19:45:25;;;;;;;4.80;4.50;;;22.10;46.80;;;;;;10452030;28;20228;-68
2021/07/09 19:50:29;;;;;;;4.80;4.40;;;22.00;46.30;;;;;;10448767;28;20232;-68
2021/07/09 19:55:33;;;;;;;5.23;4.40;;;22.00;46.30;;;;;;10446666;28;20697;-68
2021/07/09 20:00:36;;;;;;;5.37;4.77;;;22.00;46.50;;;;;;10454646;28;20858;-68
2021/07/09 20:05:49;;;;;;;4.87;4.57;;;22.00;46.50;;;;;;10449251;28;20235;-68
2021/07/09 20:10:52;;;;;;;4.70;4.37;;;21.90;46.60;;;;;;10450266;28;20225;-68
2021/07/09 20:15:55;;;;;;;5.70;5.00;;;21.90;46.70;;;;;;10444463;28;20228;-68
2021/07/09 20:21:00;;;;;;;7.23;5.10;;;21.90;46.50;;;;;;10454703;28;20224;-68
2021/07/09 20:26:07;;;;;;;5.50;5.00;;;21.80;46.30;;;;;;10456655;28;20742;-68
2021/07/09 20:31:10;;;;;;;5.73;5.23;;;21.70;46.90;;;;;;10459721;28;20231;-68
2021/07/09 20:36:15;;;;;;;5.40;5.00;;;21.60;46.70;;;;;;10453492;28;20315;-69
2021/07/09 20:41:19;;;;;;;6.03;5.43;;;21.60;46.90;;;;;;10456412;28;20229;-68
2021/07/09 20:46:22;;;;;;;5.10;4.77;;;21.50;46.40;;;;;;10463009;28;20239;-68
2021/07/09 20:51:27;;;;;;;6.17;4.67;;;21.50;46.40;;;;;;10457623;28;20766;-68
2021/07/09 20:56:31;;;;;;;5.20;4.80;;;21.40;46.50;;;;;;10454398;28;20346;-68
2021/07/09 21:01:34;;;;;;;4.97;4.47;;;21.40;46.70;;;;;;10457588;28;20225;-68
2021/07/09 21:06:38;;;;;;;5.13;4.30;;;21.30;46.70;;;;;;10460867;28;20229;-68
2021/07/09 21:11:43;;;;;;;4.80;4.03;;;21.30;46.90;;;;;;10451892;28;20328;-68
2021/07/09 21:16:46;;;;;;;5.37;4.93;;;21.30;46.70;;;;;;10452760;28;20247;-68
2021/07/09 21:21:51;;;;;;;5.33;4.80;;;21.30;46.70;;;;;;10451310;28;20594;-68
2021/07/09 21:26:54;;;;;;;5.97;4.33;;;21.30;46.70;;;;;;10458349;28;20223;-68
2021/07/09 21:31:57;;;;;;;8.00;5.27;;;21.30;46.80;;;;;;10454093;28;20221;-68
2021/07/09 21:37:02;;;;;;;4.33;3.93;;;21.20;46.50;;;;;;10449946;28;20226;-68
2021/07/09 21:42:07;;;;;;;5.67;5.17;;;21.20;46.40;;;;;;10449967;28;20235;-68
2021/07/09 21:47:10;;;;;;;4.63;4.33;;;21.10;46.60;;;;;;10454258;28;20229;-68
2021/07/09 21:52:15;;;;;;;4.43;4.03;;;21.10;46.50;;;;;;10450876;28;20221;-68
2021/07/09 21:57:31;;;;;;;5.07;4.60;;;21.00;46.20;;;;;;10455835;28;20308;-68
2021/07/09 22:02:34;;;;;;;5.37;4.90;;;20.90;46.10;;;;;;10454542;28;20232;-73
2021/07/09 22:07:39;;;;;;;5.37;4.97;;;20.90;46.20;;;;;;10451561;28;20225;-74
2021/07/09 22:12:43;;;;;;;4.53;4.23;;;20.80;46.30;;;;;;10452803;28;20228;-74
2021/07/09 22:17:46;;;;;;;5.07;4.57;;;20.70;46.30;;;;;;10459685;28;20228;-74
2021/07/09 22:22:51;;;;;;;4.20;3.90;;;20.70;46.40;;;;;;10452095;28;20708;-73
2021/07/09 22:27:56;;;;;;;4.73;3.90;;;20.60;46.20;;;;;;10451778;28;20248;-74
2021/07/09 22:32:59;;;;;;;4.27;3.73;;;20.60;46.10;;;;;;10444442;28;20229;-74
2021/07/09 22:38:04;;;;;;;5.73;3.73;;;20.60;46.10;;;;;;10451761;28;20225;-73
2021/07/09 22:43:07;;;;;;;7.67;3.83;;;20.50;45.70;;;;;;10453121;28;20225;-73
2021/07/09 22:48:10;;;;;;;3.70;3.07;;;20.40;45.80;;;;;;10450988;28;20251;-74
2021/07/09 22:53:15;;;;;;;4.70;4.30;;;20.40;46.10;;;;;;10455049;28;20232;-74
2021/07/09 22:58:37;;;;;;;4.10;3.80;;;20.30;46.00;;;;;;10452674;28;20744;-74
2021/07/09 23:03:40;;;;;;;5.70;4.47;;;20.30;45.90;;;;;;10449456;28;20907;-73
2021/07/09 23:08:45;;;;;;;6.60;4.73;;;20.20;45.80;;;;;;10451991;28;20232;-74
2021/07/09 23:13:48;;;;;;;5.03;4.37;;;20.10;45.40;;;;;;10452064;28;20634;-74
2021/07/09 23:18:51;;;;;;;4.07;3.50;;;20.00;45.30;;;;;;10444692;28;20606;-74
2021/07/09 23:23:56;;;;;;;4.30;4.00;;;19.80;45.70;;;;;;10451534;28;20223;-74
2021/07/09 23:28:59;;;;;;;4.37;3.97;;;19.70;46.10;;;;;;10446914;28;20224;-74
2021/07/09 23:34:02;;;;;;;4.67;4.20;;;19.60;45.80;;;;;;10442130;28;20221;-73
2021/07/09 23:39:07;;;;;;;5.20;4.70;;;19.60;45.90;;;;;;10450478;28;20220;-74
2021/07/09 23:44:10;;;;;;;5.03;4.67;;;19.50;45.70;;;;;;10447931;28;20586;-74
2021/07/09 23:49:13;;;;;;;7.83;4.60;;;19.40;45.60;;;;;;10458427;28;20234;-74
2021/07/09 23:54:17;;;;;;;5.80;4.40;;;19.20;45.90;;;;;;10448608;28;20213;-74
2021/07/09 23:59:21;;;;;;;4.83;4.30;;;19.00;46.30;;;;;;10449554;28;20823;-74
